createdAt,value
2023-03-12T00:00:27.524Z,97154.86
2023-03-12T00:01:31.755Z,97149.08
2023-03-12T00:02:34.518Z,97147.94
2023-03-12T00:03:36.984Z,97159.59
2023-03-12T00:04:39.281Z,97134.72
2023-03-12T00:05:42.720Z,97146.99
2023-03-12T00:06:45.257Z,97150.83
2023-03-12T00:07:48.197Z,97143.80
2023-03-12T00:08:50.937Z,97145.56
2023-03-12T00:09:54.294Z,97145.38
2023-03-12T00:10:56.810Z,97158.75
2023-03-12T00:11:59.580Z,97157.72
2023-03-12T00:13:01.820Z,97167.41
2023-03-12T00:14:03.937Z,97148.66
2023-03-12T00:15:07.837Z,97170.69
2023-03-12T00:16:13.763Z,97166.56
2023-03-12T00:17:16.058Z,97162.88
2023-03-12T00:18:18.175Z,97169.28
2023-03-12T00:19:20.696Z,97174.11
2023-03-12T00:20:23.121Z,97175.84
2023-03-12T00:21:26.576Z,97176.47
2023-03-12T00:22:29.156Z,97178.12
2023-03-12T00:23:31.778Z,97171.53
2023-03-12T00:24:34.353Z,97175.84
2023-03-12T00:25:36.881Z,97186.38
2023-03-12T00:26:40.567Z,97157.72
2023-03-12T00:27:43.726Z,97186.48
2023-03-12T00:28:48.961Z,97169.12
2023-03-12T00:29:52.854Z,97202.64
2023-03-12T00:30:57.256Z,97163.68
2023-03-12T00:31:59.829Z,97171.78
2023-03-12T00:33:02.509Z,97168.84
2023-03-12T00:34:05.016Z,97168.10
2023-03-12T00:35:08.455Z,97163.47
2023-03-12T00:36:11.355Z,97174.84
2023-03-12T00:37:14.216Z,97174.84
2023-03-12T00:38:16.988Z,97178.12
2023-03-12T00:39:19.827Z,97179.38
2023-03-12T00:40:23.923Z,97179.38
2023-03-12T00:41:27.528Z,97174.80
2023-03-12T00:42:29.720Z,97189.41
2023-03-12T00:43:32.072Z,97180.31
2023-03-12T00:44:34.724Z,97180.70
2023-03-12T00:45:36.866Z,97166.16
2023-03-12T00:46:40.432Z,97168.11
2023-03-12T00:47:42.866Z,97170.00
2023-03-12T00:48:45.726Z,97172.80
2023-03-12T00:49:47.975Z,97206.47
2023-03-12T00:50:50.809Z,97177.39
2023-03-12T00:51:54.406Z,97168.95
2023-03-12T00:52:57.065Z,97173.50
2023-03-12T00:53:59.636Z,97180.18
2023-03-12T00:55:01.980Z,97181.09
2023-03-12T00:56:05.468Z,97179.83
2023-03-12T00:57:08.003Z,97174.63
2023-03-12T00:58:11.438Z,97168.34
2023-03-12T00:59:15.650Z,97187.13
2023-03-12T01:00:20.660Z,97169.82
2023-03-12T01:01:23.715Z,97166.72
2023-03-12T01:02:26.205Z,97165.41
2023-03-12T01:03:29.147Z,97155.67
2023-03-12T01:04:31.517Z,97167.82
2023-03-12T01:05:37.354Z,97162.27
2023-03-12T01:06:39.953Z,97161.75
2023-03-12T01:07:42.964Z,97186.64
2023-03-12T01:08:45.667Z,97174.26
2023-03-12T01:09:47.814Z,97180.72
2023-03-12T01:10:51.016Z,97182.02
2023-03-12T01:11:53.515Z,97175.88
2023-03-12T01:12:55.866Z,97169.56
2023-03-12T01:14:01.021Z,97174.05
2023-03-12T01:15:03.811Z,97184.98
2023-03-12T01:16:07.492Z,97165.11
2023-03-12T01:17:09.720Z,97182.41
2023-03-12T01:18:12.168Z,97193.45
2023-03-12T01:19:14.959Z,97179.97
2023-03-12T01:20:17.587Z,97173.27
2023-03-12T01:21:21.213Z,97189.00
2023-03-12T01:22:23.546Z,97177.68
2023-03-12T01:23:26.250Z,97181.81
2023-03-12T01:24:28.593Z,97165.34
2023-03-12T01:25:31.104Z,97175.25
2023-03-12T01:26:33.757Z,97174.02
2023-03-12T01:27:36.742Z,97176.38
2023-03-12T01:28:40.135Z,97188.69
2023-03-12T01:29:42.769Z,97193.98
2023-03-12T01:30:45.210Z,97192.31
2023-03-12T01:31:47.795Z,97223.02
2023-03-12T01:32:51.782Z,97224.97
2023-03-12T01:33:54.445Z,97211.56
2023-03-12T01:34:59.779Z,97213.04
2023-03-12T01:36:02.574Z,97209.88
2023-03-12T01:37:06.479Z,97209.89
2023-03-12T01:38:12.512Z,97212.20
2023-03-12T01:39:15.451Z,97227.92
2023-03-12T01:40:21.118Z,97220.20
2023-03-12T01:41:25.502Z,97218.53
2023-03-12T01:42:27.862Z,97227.84
2023-03-12T01:43:33.315Z,97224.53
2023-03-12T01:44:54.995Z,97219.28
2023-03-12T01:46:30.045Z,97232.52
2023-03-12T01:47:32.918Z,97234.66
2023-03-12T01:48:40.784Z,97229.78
2023-03-12T01:49:44.556Z,97253.39
2023-03-12T01:50:47.652Z,97252.56
2023-03-12T01:53:16.493Z,97230.86
2023-03-12T01:54:23.433Z,97247.42
2023-03-12T01:55:25.946Z,97270.20
2023-03-12T01:56:33.371Z,97257.23
2023-03-12T01:57:51.611Z,97239.87
2023-03-12T01:58:57.604Z,97261.56
2023-03-12T02:00:04.624Z,97254.59
2023-03-12T02:01:09.111Z,97269.65
2023-03-12T02:02:12.993Z,97259.36
2023-03-12T02:03:16.378Z,97267.44
2023-03-12T02:04:22.239Z,97269.27
2023-03-12T02:05:28.933Z,97274.20
2023-03-12T02:06:43.480Z,97287.72
2023-03-12T02:07:47.270Z,97283.19
2023-03-12T02:08:51.780Z,97296.56
2023-03-12T02:09:54.202Z,97318.05
2023-03-12T02:10:56.854Z,97305.31
2023-03-12T02:11:59.476Z,97297.95
2023-03-12T02:13:01.915Z,97292.47
2023-03-12T02:14:05.186Z,97303.91
2023-03-12T02:15:08.945Z,97326.15
2023-03-12T02:16:13.349Z,97313.04
2023-03-12T02:17:15.806Z,97333.77
2023-03-12T02:18:19.344Z,97307.16
2023-03-12T02:19:28.209Z,97302.77
2023-03-12T02:20:54.274Z,97314.05
2023-03-12T02:21:58.022Z,97322.48
2023-03-12T02:23:23.791Z,97317.69
2023-03-12T02:24:35.370Z,97338.58
2023-03-12T02:25:44.387Z,97345.14
2023-03-12T02:26:49.038Z,97357.77
2023-03-12T02:27:52.243Z,97339.51
2023-03-12T02:28:56.426Z,97339.69
2023-03-12T02:30:01.438Z,97348.48
2023-03-12T02:31:07.065Z,97322.36
2023-03-12T02:32:11.808Z,97371.84
2023-03-12T02:33:17.234Z,97346.16
2023-03-12T02:34:19.720Z,97353.42
2023-03-12T02:35:22.229Z,97366.34
2023-03-12T02:36:24.944Z,97363.34
2023-03-12T02:37:27.879Z,97326.96
2023-03-12T02:38:45.308Z,97370.09
2023-03-12T02:39:51.534Z,97369.55
2023-03-12T02:40:57.687Z,97377.02
2023-03-12T02:42:00.388Z,97351.19
2023-03-12T02:43:06.613Z,97377.16
2023-03-12T02:44:12.802Z,97371.88
2023-03-12T02:45:15.530Z,97377.92
2023-03-12T02:46:18.652Z,97380.41
2023-03-12T02:47:21.042Z,97391.48
2023-03-12T02:48:23.538Z,97391.94
2023-03-12T02:49:29.436Z,97388.00
2023-03-12T02:50:32.577Z,97376.22
2023-03-12T02:51:35.081Z,97362.03
2023-03-12T02:52:37.712Z,97411.38
2023-03-12T02:53:40.266Z,97367.49
2023-03-12T02:54:42.887Z,97379.13
2023-03-12T02:55:46.273Z,97372.91
2023-03-12T02:56:49.737Z,97367.50
2023-03-12T02:57:52.337Z,97413.95
2023-03-12T02:58:54.791Z,97374.34
2023-03-12T02:59:57.778Z,97371.78
2023-03-12T03:01:00.327Z,97364.23
2023-03-12T03:02:03.870Z,97412.48
2023-03-12T03:03:06.161Z,97409.69
2023-03-12T03:04:11.003Z,97420.31
2023-03-12T03:05:13.735Z,97391.69
2023-03-12T03:06:16.949Z,97389.13
2023-03-12T03:07:19.683Z,97420.58
2023-03-12T03:08:22.127Z,97390.02
2023-03-12T03:09:25.364Z,97408.67
2023-03-12T03:10:28.162Z,97425.19
2023-03-12T03:11:30.913Z,97411.50
2023-03-12T03:12:36.206Z,97425.14
2023-03-12T03:13:39.016Z,97428.27
2023-03-12T03:14:41.478Z,97406.72
2023-03-12T03:15:43.859Z,97408.50
2023-03-12T03:16:46.556Z,97405.50
2023-03-12T03:17:49.107Z,97435.11
2023-03-12T03:18:51.544Z,97415.61
2023-03-12T03:19:54.401Z,97430.61
2023-03-12T03:21:01.772Z,97438.60
2023-03-12T03:22:05.706Z,97443.72
2023-03-12T03:23:08.142Z,97448.83
2023-03-12T03:24:10.502Z,97443.00
2023-03-12T03:25:12.922Z,97426.11
2023-03-12T03:26:17.642Z,97441.27
2023-03-12T03:27:20.075Z,97447.02
2023-03-12T03:28:25.194Z,97443.58
2023-03-12T03:29:27.844Z,97474.20
2023-03-12T03:30:30.716Z,97438.09
2023-03-12T03:31:33.327Z,97484.12
2023-03-12T03:32:35.856Z,97446.02
2023-03-12T03:33:39.686Z,97437.55
2023-03-12T03:34:42.409Z,97447.05
2023-03-12T03:35:45.677Z,97452.09
2023-03-12T03:36:48.430Z,97421.50
2023-03-12T03:37:52.372Z,97455.59
2023-03-12T03:38:54.869Z,97459.10
2023-03-12T03:39:57.480Z,97442.98
2023-03-12T03:41:00.637Z,97453.27
2023-03-12T03:42:04.134Z,97461.11
2023-03-12T03:43:08.355Z,97456.55
2023-03-12T03:44:11.134Z,97485.92
2023-03-12T03:45:13.728Z,97485.92
2023-03-12T03:46:18.022Z,97477.54
2023-03-12T03:47:23.326Z,97504.07
2023-03-12T03:48:26.851Z,97465.65
2023-03-12T03:49:29.328Z,97488.66
2023-03-12T03:50:32.173Z,97489.59
2023-03-12T03:51:34.674Z,97522.48
2023-03-12T03:52:38.951Z,97482.59
2023-03-12T03:53:41.483Z,97478.27
2023-03-12T03:54:43.903Z,97479.61
2023-03-12T03:55:46.441Z,97511.34
2023-03-12T03:56:49.344Z,97533.64
2023-03-12T03:57:51.830Z,97505.70
2023-03-12T03:58:55.193Z,97495.48
2023-03-12T03:59:59.266Z,97504.03
2023-03-12T04:01:02.844Z,97498.20
2023-03-12T04:02:05.561Z,97527.30
2023-03-12T04:03:09.751Z,97530.91
2023-03-12T04:04:12.566Z,97518.04
2023-03-12T04:05:17.404Z,97506.03
2023-03-12T04:06:20.745Z,97511.10
2023-03-12T04:07:23.295Z,97520.31
2023-03-12T04:08:26.363Z,97529.25
2023-03-12T04:09:30.040Z,97528.12
2023-03-12T04:10:32.816Z,97513.75
2023-03-12T04:11:35.686Z,97539.95
2023-03-12T04:12:38.573Z,97539.51
2023-03-12T04:13:41.498Z,97548.27
2023-03-12T04:14:43.944Z,97520.12
2023-03-12T04:15:49.676Z,97522.10
2023-03-12T04:16:52.267Z,97522.10
2023-03-12T04:17:54.945Z,97558.54
2023-03-12T04:18:57.858Z,97532.00
2023-03-12T04:20:00.883Z,97553.22
2023-03-12T04:21:05.894Z,97536.10
2023-03-12T04:22:08.294Z,97550.45
2023-03-12T04:23:11.323Z,97556.53
2023-03-12T04:24:16.071Z,97554.19
2023-03-12T04:25:18.537Z,97554.10
2023-03-12T04:26:21.203Z,97584.31
2023-03-12T04:27:23.645Z,97627.27
2023-03-12T04:28:26.122Z,97563.43
2023-03-12T04:29:28.609Z,97594.95
2023-03-12T04:30:31.322Z,97578.17
2023-03-12T04:31:33.887Z,97569.63
2023-03-12T04:32:36.511Z,97564.77
2023-03-12T04:33:40.657Z,97590.36
2023-03-12T04:34:43.701Z,97561.84
2023-03-12T04:35:51.199Z,97618.60
2023-03-12T04:36:53.730Z,97586.71
2023-03-12T04:37:58.540Z,97574.25
2023-03-12T04:39:01.626Z,97585.25
2023-03-12T04:40:09.508Z,97585.31
2023-03-12T04:41:14.155Z,97601.23
2023-03-12T04:42:21.046Z,97584.64
2023-03-12T04:43:23.719Z,97587.13
2023-03-12T04:44:27.459Z,97587.74
2023-03-12T04:45:29.815Z,97620.69
2023-03-12T04:46:32.496Z,97606.31
2023-03-12T04:47:35.118Z,97588.80
2023-03-12T04:48:38.556Z,97600.27
2023-03-12T04:49:41.596Z,97613.24
2023-03-12T04:50:44.100Z,97596.81
2023-03-12T04:51:46.805Z,97596.08
2023-03-12T04:52:49.438Z,97611.19
2023-03-12T04:53:51.784Z,97607.22
2023-03-12T04:54:54.907Z,97605.02
2023-03-12T04:55:57.403Z,97613.55
2023-03-12T04:57:00.389Z,97606.57
2023-03-12T04:58:03.761Z,97622.81
2023-03-12T04:59:06.610Z,97621.80
2023-03-12T05:00:12.695Z,97619.47
2023-03-12T05:01:28.176Z,97620.41
2023-03-12T05:02:30.603Z,97624.69
2023-03-12T05:03:33.124Z,97636.03
2023-03-12T05:04:36.932Z,97628.80
2023-03-12T05:05:39.386Z,97636.51
2023-03-12T05:06:42.305Z,97650.83
2023-03-12T05:07:44.917Z,97642.59
2023-03-12T05:08:48.168Z,97652.61
2023-03-12T05:09:50.798Z,97656.59
2023-03-12T05:10:53.240Z,97678.50
2023-03-12T05:11:55.742Z,97647.98
2023-03-12T05:12:59.078Z,97664.84
2023-03-12T05:14:03.452Z,97685.63
2023-03-12T05:15:06.779Z,97656.38
2023-03-12T05:16:10.885Z,97658.45
2023-03-12T05:17:13.546Z,97681.14
2023-03-12T05:18:16.629Z,97710.44
2023-03-12T05:19:19.216Z,97674.63
2023-03-12T05:20:22.181Z,97697.87
2023-03-12T05:21:25.053Z,97689.23
2023-03-12T05:22:29.356Z,97691.78
2023-03-12T05:23:32.369Z,97688.55
2023-03-12T05:24:35.319Z,97678.85
2023-03-12T05:25:39.983Z,97697.94
2023-03-12T05:26:43.195Z,97708.27
2023-03-12T05:27:47.776Z,97721.87
2023-03-12T05:28:51.290Z,97698.61
2023-03-12T05:29:54.691Z,97702.68
2023-03-12T05:30:58.893Z,97704.53
2023-03-12T05:32:03.198Z,97699.92
2023-03-12T05:33:06.088Z,97719.91
2023-03-12T05:34:11.943Z,97722.75
2023-03-12T05:35:15.022Z,97735.69
2023-03-12T05:36:18.248Z,97743.23
2023-03-12T05:37:21.996Z,97722.34
2023-03-12T05:38:24.847Z,97739.80
2023-03-12T05:39:27.758Z,97721.15
2023-03-12T05:41:58.445Z,97757.66
2023-03-12T05:43:01.324Z,97744.87
2023-03-12T05:44:04.089Z,97782.09
2023-03-12T05:45:08.234Z,97752.30
2023-03-12T05:46:11.916Z,97734.67
2023-03-12T05:47:14.480Z,97734.67
2023-03-12T05:48:18.185Z,97772.86
2023-03-12T05:49:21.585Z,97776.98
2023-03-12T05:50:24.462Z,97755.59
2023-03-12T05:51:27.262Z,97781.59
2023-03-12T05:52:30.145Z,97770.59
2023-03-12T05:53:33.132Z,97759.23
2023-03-12T05:54:36.210Z,97762.58
2023-03-12T05:55:40.088Z,97767.63
2023-03-12T05:56:42.861Z,97796.67
2023-03-12T05:57:45.286Z,97791.17
2023-03-12T05:58:49.420Z,97789.50
2023-03-12T05:59:53.096Z,97795.12
2023-03-12T06:00:56.307Z,97828.55
2023-03-12T06:01:58.845Z,97816.84
2023-03-12T06:03:01.229Z,97826.46
2023-03-12T06:04:05.047Z,97807.76
2023-03-12T06:05:10.084Z,97816.40
2023-03-12T06:06:13.356Z,97824.97
2023-03-12T06:07:16.708Z,97841.66
2023-03-12T06:08:20.529Z,97815.51
2023-03-12T06:09:22.810Z,97839.21
2023-03-12T06:10:26.090Z,97849.59
2023-03-12T06:11:28.245Z,97838.80
2023-03-12T06:12:30.870Z,97825.61
2023-03-12T06:13:33.296Z,97865.80
2023-03-12T06:14:36.662Z,97851.48
2023-03-12T06:15:38.867Z,97822.34
2023-03-12T06:16:44.136Z,97834.55
2023-03-12T06:17:47.890Z,97854.13
2023-03-12T06:18:54.908Z,97862.65
2023-03-12T06:19:57.590Z,97819.69
2023-03-12T06:21:15.197Z,97873.18
2023-03-12T06:22:18.683Z,97855.12
2023-03-12T06:23:22.171Z,97856.20
2023-03-12T06:24:24.532Z,97874.70
2023-03-12T06:25:32.338Z,97861.78
2023-03-12T06:26:35.522Z,97877.33
2023-03-12T06:27:37.951Z,97862.41
2023-03-12T06:28:40.899Z,97876.38
2023-03-12T06:29:43.202Z,97882.55
2023-03-12T06:30:46.638Z,97890.05
2023-03-12T06:31:50.921Z,97882.41
2023-03-12T06:32:53.768Z,97892.31
2023-03-12T06:33:56.174Z,97905.06
2023-03-12T06:35:00.093Z,97879.91
2023-03-12T06:36:05.493Z,97883.05
2023-03-12T06:37:08.012Z,97884.73
2023-03-12T06:38:11.433Z,97892.48
2023-03-12T06:39:18.542Z,97911.98
2023-03-12T06:40:22.269Z,97892.61
2023-03-12T06:41:24.693Z,97887.28
2023-03-12T06:42:27.541Z,97906.88
2023-03-12T06:43:32.807Z,97908.05
2023-03-12T06:44:35.491Z,97908.81
2023-03-12T06:45:38.349Z,97915.61
2023-03-12T06:46:42.618Z,97916.30
2023-03-12T06:47:45.554Z,97918.86
2023-03-12T06:48:48.356Z,97934.98
2023-03-12T06:49:51.850Z,97934.93
2023-03-12T06:50:54.706Z,97930.73
2023-03-12T06:51:57.107Z,97930.73
2023-03-12T06:52:59.772Z,97939.09
2023-03-12T06:54:02.020Z,97973.79
2023-03-12T06:55:04.894Z,97959.72
2023-03-12T06:56:08.089Z,97942.67
2023-03-12T06:57:10.407Z,97957.32
2023-03-12T06:58:13.467Z,97986.95
2023-03-12T06:59:18.376Z,97957.88
2023-03-12T07:00:22.137Z,97945.23
2023-03-12T07:01:24.682Z,97983.93
2023-03-12T07:02:27.148Z,98007.14
2023-03-12T07:03:29.931Z,97987.05
2023-03-12T07:04:32.328Z,97976.70
2023-03-12T07:05:34.678Z,97999.65
2023-03-12T07:06:37.395Z,97983.38
2023-03-12T07:07:39.755Z,97972.75
2023-03-12T07:08:42.393Z,97982.09
2023-03-12T07:09:44.649Z,97989.57
2023-03-12T07:10:46.989Z,98009.06
2023-03-12T07:11:51.147Z,97990.02
2023-03-12T07:12:54.277Z,98006.78
2023-03-12T07:13:56.770Z,98009.73
2023-03-12T07:14:59.402Z,97989.73
2023-03-12T07:16:02.635Z,98017.59
2023-03-12T07:17:05.617Z,97998.25
2023-03-12T07:18:10.408Z,98003.20
2023-03-12T07:19:12.890Z,98028.62
2023-03-12T07:20:15.919Z,98009.06
2023-03-12T07:21:20.713Z,98013.25
2023-03-12T07:22:24.460Z,98021.28
2023-03-12T07:23:28.099Z,98037.02
2023-03-12T07:24:32.919Z,98039.21
2023-03-12T07:25:42.288Z,98034.93
2023-03-12T07:26:45.608Z,98044.67
2023-03-12T07:27:47.645Z,98039.08
2023-03-12T07:28:49.778Z,98052.34
2023-03-12T07:29:52.862Z,98062.75
2023-03-12T07:31:04.117Z,98053.51
2023-03-12T07:32:07.035Z,98055.81
2023-03-12T07:33:12.947Z,98055.70
2023-03-12T07:34:15.853Z,98075.25
2023-03-12T07:35:19.071Z,98066.27
2023-03-12T07:36:22.229Z,98067.48
2023-03-12T07:37:26.214Z,98075.92
2023-03-12T07:38:28.862Z,98057.90
2023-03-12T07:39:31.947Z,98101.78
2023-03-12T07:40:35.233Z,98077.29
2023-03-12T07:41:38.420Z,98079.34
2023-03-12T07:42:40.909Z,98088.77
2023-03-12T07:43:44.481Z,98068.76
2023-03-12T07:44:47.128Z,98101.64
2023-03-12T07:45:50.073Z,98098.02
2023-03-12T07:46:54.494Z,98110.12
2023-03-12T07:47:57.849Z,98097.25
2023-03-12T07:49:01.975Z,98142.72
2023-03-12T07:50:05.141Z,98110.27
2023-03-12T07:51:07.985Z,98127.73
2023-03-12T07:52:11.201Z,98103.63
2023-03-12T07:53:13.966Z,98122.39
2023-03-12T07:54:16.820Z,98104.40
2023-03-12T07:55:20.475Z,98117.63
2023-03-12T07:56:24.163Z,98135.83
2023-03-12T07:57:27.129Z,98172.90
2023-03-12T07:58:29.783Z,98179.39
2023-03-12T07:59:33.029Z,98179.39
2023-03-12T08:00:35.505Z,98158.30
2023-03-12T08:01:38.132Z,98131.23
2023-03-12T08:02:40.934Z,98149.00
2023-03-12T08:03:43.560Z,98147.32
2023-03-12T08:04:46.947Z,98156.95
2023-03-12T08:05:58.876Z,98158.60
2023-03-12T08:07:02.278Z,98166.10
2023-03-12T08:08:05.069Z,98157.82
2023-03-12T08:09:07.251Z,98172.27
2023-03-12T08:10:11.594Z,98161.52
2023-03-12T08:11:13.977Z,98166.88
2023-03-12T08:12:17.285Z,98175.09
2023-03-12T08:13:20.810Z,98177.47
2023-03-12T08:14:23.105Z,98202.34
2023-03-12T08:15:25.387Z,98196.16
2023-03-12T08:16:27.955Z,98163.13
2023-03-12T08:17:30.581Z,98187.44
2023-03-12T08:18:32.836Z,98207.86
2023-03-12T08:19:35.466Z,98184.30
2023-03-12T08:20:38.147Z,98173.95
2023-03-12T08:21:40.503Z,98169.78
2023-03-12T08:22:43.276Z,98181.68
2023-03-12T08:23:46.272Z,98190.38
2023-03-12T08:24:48.956Z,98190.38
2023-03-12T08:25:52.307Z,98181.08
2023-03-12T08:26:56.508Z,98200.67
2023-03-12T08:27:59.348Z,98221.92
2023-03-12T08:29:01.746Z,98205.63
2023-03-12T08:30:06.010Z,98200.72
2023-03-12T08:31:09.008Z,98190.99
2023-03-12T08:32:13.395Z,98192.67
2023-03-12T08:33:17.513Z,98208.29
2023-03-12T08:34:20.313Z,98219.89
2023-03-12T08:35:22.954Z,98223.89
2023-03-12T08:36:25.517Z,98223.16
2023-03-12T08:37:28.329Z,98223.16
2023-03-12T08:38:33.102Z,98252.83
2023-03-12T08:39:36.316Z,98228.66
2023-03-12T08:40:38.820Z,98221.19
2023-03-12T08:41:41.173Z,98218.50
2023-03-12T08:42:44.847Z,98225.08
2023-03-12T08:43:47.454Z,98227.50
2023-03-12T08:44:49.709Z,98235.15
2023-03-12T08:45:58.391Z,98234.28
2023-03-12T08:47:00.867Z,98228.27
2023-03-12T08:48:06.080Z,98238.48
2023-03-12T08:49:08.557Z,98240.02
2023-03-12T08:50:13.164Z,98261.89
2023-03-12T08:51:16.998Z,98254.38
2023-03-12T08:52:20.426Z,98251.87
2023-03-12T08:53:23.958Z,98257.52
2023-03-12T08:54:26.543Z,98253.81
2023-03-12T08:55:29.758Z,98253.95
2023-03-12T08:56:32.332Z,98251.20
2023-03-12T08:57:34.860Z,98264.02
2023-03-12T08:58:37.310Z,98246.09
2023-03-12T08:59:40.522Z,98246.09
2023-03-12T09:00:43.175Z,98267.39
2023-03-12T09:01:46.165Z,98276.20
2023-03-12T09:02:51.537Z,98253.33
2023-03-12T09:03:54.809Z,98269.89
2023-03-12T09:04:57.678Z,98336.01
2023-03-12T09:06:06.787Z,98258.75
2023-03-12T09:07:13.530Z,98286.55
2023-03-12T09:08:26.142Z,98294.94
2023-03-12T09:09:31.308Z,98302.19
2023-03-12T09:10:34.385Z,98300.45
2023-03-12T09:11:42.077Z,98320.88
2023-03-12T09:12:47.562Z,98339.61
2023-03-12T09:14:22.219Z,98309.98
2023-03-12T09:15:03.762Z,98304.52
2023-03-12T09:16:01.017Z,98320.74
2023-03-12T09:17:03.715Z,98321.33
2023-03-12T09:18:07.289Z,98326.17
2023-03-12T09:19:17.002Z,98319.32
2023-03-12T09:20:20.268Z,98308.05
2023-03-12T09:21:22.650Z,98321.75
2023-03-12T09:22:25.629Z,98336.30
2023-03-12T09:23:29.939Z,98322.51
2023-03-12T09:24:32.148Z,98324.34
2023-03-12T09:25:34.384Z,98335.33
2023-03-12T09:26:37.249Z,98342.89
2023-03-12T09:27:45.821Z,98327.61
2023-03-12T09:28:49.045Z,98347.23
2023-03-12T09:30:00.226Z,98352.44
2023-03-12T09:31:02.281Z,98351.38
2023-03-12T09:32:06.044Z,98345.22
2023-03-12T09:33:08.678Z,98351.19
2023-03-12T09:34:11.089Z,98363.09
2023-03-12T09:35:16.323Z,98374.32
2023-03-12T09:36:18.909Z,98368.12
2023-03-12T09:37:24.059Z,98388.02
2023-03-12T09:38:27.896Z,98367.58
2023-03-12T09:39:30.570Z,98375.23
2023-03-12T09:40:39.863Z,98380.35
2023-03-12T09:41:47.220Z,98375.00
2023-03-12T09:42:56.526Z,98364.92
2023-03-12T09:44:22.504Z,98376.73
2023-03-12T09:45:27.603Z,98377.27
2023-03-12T09:46:36.522Z,98414.01
2023-03-12T09:47:45.312Z,98401.60
2023-03-12T09:48:49.866Z,98393.20
2023-03-12T09:49:57.649Z,98396.30
2023-03-12T09:51:16.106Z,98395.25
2023-03-12T09:52:25.837Z,98379.54
2023-03-12T09:53:46.015Z,98421.44
2023-03-12T09:54:51.974Z,98403.59
2023-03-12T09:55:57.916Z,98407.66
2023-03-12T09:57:03.080Z,98404.23
2023-03-12T09:58:15.646Z,98410.02
2023-03-12T09:59:18.387Z,98424.81
2023-03-12T10:00:24.546Z,98430.25
2023-03-12T10:01:42.509Z,98467.75
2023-03-12T10:03:11.182Z,98448.44
2023-03-12T10:04:26.166Z,98465.20
2023-03-12T10:05:41.438Z,98434.72
2023-03-12T10:07:11.369Z,98436.49
2023-03-12T10:08:30.369Z,98443.89
2023-03-12T10:09:54.332Z,98484.98
2023-03-12T10:11:33.669Z,98465.42
2023-03-12T10:12:47.535Z,98455.84
2023-03-12T10:14:03.019Z,98436.77
2023-03-12T10:15:33.955Z,98457.03
2023-03-12T10:16:49.360Z,98491.39
2023-03-12T10:18:12.181Z,98473.46
2023-03-12T10:19:36.591Z,98484.00
2023-03-12T10:20:57.444Z,98498.66
2023-03-12T10:22:34.187Z,98504.36
2023-03-12T10:24:02.469Z,98489.26
2023-03-12T10:25:09.157Z,98475.17
2023-03-12T10:26:30.985Z,98482.88
2023-03-12T10:27:36.621Z,98493.46
2023-03-12T10:29:01.758Z,98510.34
2023-03-12T10:30:08.734Z,98514.45
2023-03-12T10:32:44.594Z,98493.99
2023-03-12T10:33:53.886Z,98488.10
2023-03-12T10:34:59.626Z,98510.20
2023-03-12T10:36:05.632Z,98483.89
2023-03-12T10:37:18.259Z,98506.83
2023-03-12T10:38:25.311Z,98508.86
2023-03-12T10:39:29.103Z,98494.70
2023-03-12T10:40:34.903Z,98508.45
2023-03-12T10:41:38.175Z,98502.83
2023-03-12T10:42:40.580Z,98525.61
2023-03-12T10:43:44.298Z,98505.23
2023-03-12T10:44:50.563Z,98512.38
2023-03-12T10:46:21.491Z,98548.33
2023-03-12T10:47:39.924Z,98498.15
2023-03-12T10:48:44.146Z,98501.59
2023-03-12T10:49:50.141Z,98533.36
2023-03-12T10:51:08.672Z,98518.02
2023-03-12T10:52:22.320Z,98534.39
2023-03-12T10:53:32.704Z,98497.17
2023-03-12T10:54:40.767Z,98528.88
2023-03-12T10:55:43.678Z,98516.30
2023-03-12T10:56:50.957Z,98520.73
2023-03-12T10:57:54.296Z,98503.75
2023-03-12T10:58:58.623Z,98513.06
2023-03-12T11:00:14.524Z,98477.09
2023-03-12T11:02:49.254Z,98487.95
2023-03-12T11:03:54.081Z,98526.64
2023-03-12T11:04:57.587Z,98488.11
2023-03-12T11:06:03.947Z,98527.77
2023-03-12T11:07:16.815Z,98508.37
2023-03-12T11:08:24.669Z,98545.16
2023-03-12T11:09:27.642Z,98500.22
2023-03-12T11:10:45.372Z,98502.42
2023-03-12T11:11:49.834Z,98507.30
2023-03-12T11:13:01.084Z,98496.98
2023-03-12T11:14:10.413Z,98502.80
2023-03-12T11:15:28.520Z,98517.17
2023-03-12T11:16:32.278Z,98525.51
2023-03-12T11:17:35.250Z,98544.13
2023-03-12T11:18:38.718Z,98515.08
2023-03-12T11:19:43.340Z,98517.83
2023-03-12T11:20:52.676Z,98521.31
2023-03-12T11:21:59.058Z,98536.82
2023-03-12T11:23:17.694Z,98541.38
2023-03-12T11:24:20.253Z,98530.23
2023-03-12T11:25:29.470Z,98531.85
2023-03-12T11:26:35.942Z,98542.70
2023-03-12T11:27:45.269Z,98533.08
2023-03-12T11:28:51.670Z,98532.00
2023-03-12T11:29:54.578Z,98542.02
2023-03-12T11:30:58.484Z,98543.56
2023-03-12T11:32:20.236Z,98553.25
2023-03-12T11:33:23.692Z,98551.56
2023-03-12T11:34:33.689Z,98549.06
2023-03-12T11:35:58.526Z,98559.05
2023-03-12T11:37:10.456Z,98565.96
2023-03-12T11:38:28.193Z,98557.61
2023-03-12T11:39:53.327Z,98578.16
2023-03-12T11:41:11.728Z,98561.25
2023-03-12T11:42:34.656Z,98579.58
2023-03-12T11:43:55.976Z,98574.05
2023-03-12T11:45:24.654Z,98560.45
2023-03-12T11:46:47.506Z,98564.32
2023-03-12T11:48:09.192Z,98560.95
2023-03-12T11:49:32.133Z,98546.80
2023-03-12T11:50:48.191Z,98570.84
2023-03-12T11:51:58.311Z,98581.70
2023-03-12T11:53:07.855Z,98553.61
2023-03-12T11:54:44.138Z,98581.78
2023-03-12T11:56:08.074Z,98560.69
2023-03-12T11:57:35.942Z,98588.03
2023-03-12T11:58:53.891Z,98616.97
2023-03-12T12:00:24.074Z,98598.72
2023-03-12T12:01:40.227Z,98571.73
2023-03-12T12:03:22.087Z,98584.80
2023-03-12T12:04:40.446Z,98595.75
2023-03-12T12:06:10.405Z,98588.57
2023-03-12T12:07:29.134Z,98576.43
2023-03-12T12:08:47.159Z,98575.98
2023-03-12T12:11:46.114Z,98589.80
2023-03-12T12:12:58.905Z,98578.61
2023-03-12T12:14:17.246Z,98575.17
2023-03-12T12:15:28.304Z,98582.05
2023-03-12T12:16:44.421Z,98597.95
2023-03-12T12:18:15.179Z,98585.88
2023-03-12T12:19:33.396Z,98590.11
2023-03-12T12:21:01.243Z,98616.97
2023-03-12T12:22:07.861Z,98632.99
2023-03-12T12:23:17.228Z,98612.58
2023-03-12T12:24:32.552Z,98610.89
2023-03-12T12:25:58.320Z,98617.78
2023-03-12T12:27:21.492Z,98625.00
2023-03-12T12:28:49.644Z,98614.84
2023-03-12T12:30:21.228Z,98607.34
2023-03-12T12:31:35.521Z,98644.98
2023-03-12T12:32:45.523Z,98618.77
2023-03-12T12:33:51.434Z,98620.10
2023-03-12T12:35:04.720Z,98615.97
2023-03-12T12:36:10.155Z,98613.28
2023-03-12T12:37:44.078Z,98624.18
2023-03-12T12:39:05.173Z,98644.87
2023-03-12T12:41:30.833Z,98656.88
2023-03-12T12:44:03.798Z,98672.83
2023-03-12T12:45:10.243Z,98654.93
2023-03-12T12:46:22.243Z,98645.50
2023-03-12T12:47:41.754Z,98668.02
2023-03-12T12:48:50.771Z,98643.33
2023-03-12T12:49:59.203Z,98655.36
2023-03-12T12:51:03.661Z,98662.95
2023-03-12T12:52:09.054Z,98663.83
2023-03-12T12:53:20.029Z,98716.41
2023-03-12T12:54:32.725Z,98665.17
2023-03-12T12:55:41.595Z,98666.70
2023-03-12T12:56:48.504Z,98665.61
2023-03-12T12:58:03.582Z,98693.95
2023-03-12T12:59:23.249Z,98655.83
2023-03-12T13:00:57.473Z,98680.55
2023-03-12T13:02:02.802Z,98658.08
2023-03-12T13:03:05.482Z,98664.42
2023-03-12T13:04:14.266Z,98667.63
2023-03-12T13:05:23.758Z,98675.50
2023-03-12T13:06:30.359Z,98668.39